createdAt,value
2018-12-09T00:02:22.905Z,89.17
2018-12-09T00:04:51.342Z,89.40
2018-12-09T00:07:19.033Z,88.98
2018-12-09T00:09:47.658Z,89.08
2018-12-09T00:12:15.267Z,89.13
2018-12-09T00:14:43.666Z,89.02
2018-12-09T00:17:11.285Z,89.22
2018-12-09T00:19:39.803Z,89.13
2018-12-09T00:22:08.390Z,89.43
2018-12-09T00:24:36.935Z,89.67
2018-12-09T00:27:05.460Z,89.49
2018-12-09T00:29:33.936Z,89.96
2018-12-09T00:32:01.575Z,90.01
2018-12-09T00:34:30.146Z,90.35
2018-12-09T00:36:57.751Z,90.40
2018-12-09T00:39:26.278Z,90.83
2018-12-09T00:41:53.924Z,91.18
2018-12-09T00:44:21.538Z,91.54
2018-12-09T00:46:49.226Z,91.62
2018-12-09T00:49:16.891Z,91.90
2018-12-09T00:51:45.288Z,92.30
2018-12-09T00:54:12.930Z,92.71
2018-12-09T00:56:41.470Z,92.96
2018-12-09T00:59:10.028Z,93.07
2018-12-09T01:01:37.642Z,93.09
2018-12-09T01:04:05.297Z,93.84
2018-12-09T01:06:33.511Z,93.77
2018-12-09T01:09:01.500Z,93.75
2018-12-09T01:11:29.130Z,93.94
2018-12-09T01:13:56.747Z,94.39
2018-12-09T01:16:25.212Z,94.49
2018-12-09T01:18:52.831Z,94.88
2018-12-09T01:21:20.442Z,95.00
2018-12-09T01:23:48.972Z,95.34
2018-12-09T01:26:17.443Z,95.33
2018-12-09T01:28:45.882Z,95.42
2018-12-09T01:31:14.413Z,95.60
2018-12-09T01:33:42.839Z,95.88
2018-12-09T01:36:11.248Z,96.08
2018-12-09T01:38:38.874Z,96.54
2018-12-09T01:41:07.414Z,96.84
2018-12-09T01:43:35.051Z,96.79
2018-12-09T01:46:04.613Z,97.04
2018-12-09T01:48:32.803Z,97.25
2018-12-09T01:51:00.435Z,97.67
2018-12-09T01:53:40.019Z,97.69
2018-12-09T01:56:08.568Z,97.51
2018-12-09T01:58:37.111Z,97.63
2018-12-09T02:01:05.676Z,97.40
2018-12-09T02:03:34.222Z,97.38
2018-12-09T02:06:02.840Z,97.77
2018-12-09T02:08:31.421Z,97.81
2018-12-09T02:10:59.594Z,98.08
2018-12-09T02:13:28.152Z,98.06
2018-12-09T02:15:56.664Z,97.99
2018-12-09T02:18:24.291Z,98.20
2018-12-09T02:20:52.617Z,98.23
2018-12-09T02:23:21.090Z,98.25
2018-12-09T02:25:48.771Z,98.47
2018-12-09T02:28:17.537Z,98.51
2018-12-09T02:30:45.163Z,98.66
2018-12-09T02:33:13.994Z,98.99
2018-12-09T02:35:47.230Z,98.94
2018-12-09T02:38:15.692Z,98.76
2018-12-09T02:40:44.265Z,98.68
2018-12-09T02:43:12.825Z,98.21
2018-12-09T02:45:41.417Z,98.06
2018-12-09T02:48:09.051Z,97.92
2018-12-09T02:50:37.632Z,97.30
2018-12-09T02:53:05.338Z,97.34
2018-12-09T02:55:33.935Z,97.20
2018-12-09T02:58:02.478Z,97.25
2018-12-09T03:00:31.407Z,97.27
2018-12-09T03:03:00.044Z,97.37
2018-12-09T03:05:28.669Z,96.96
2018-12-09T03:07:57.219Z,96.61
2018-12-09T03:10:25.797Z,96.83
2018-12-09T03:12:53.444Z,96.90
2018-12-09T03:15:21.997Z,97.13
2018-12-09T03:17:50.795Z,97.14
2018-12-09T03:20:18.480Z,96.95
2018-12-09T03:22:46.883Z,96.95
2018-12-09T03:25:14.497Z,96.48
2018-12-09T03:27:43.055Z,96.79
2018-12-09T03:30:11.461Z,96.62
2018-12-09T03:32:40.108Z,96.93
2018-12-09T03:35:08.717Z,96.87
2018-12-09T03:37:37.171Z,96.54
2018-12-09T03:40:06.237Z,96.56
2018-12-09T03:42:34.832Z,96.62
2018-12-09T03:45:05.329Z,96.38
2018-12-09T03:47:33.833Z,96.29
2018-12-09T03:50:01.472Z,96.26
2018-12-09T03:52:30.054Z,96.05
2018-12-09T03:54:58.635Z,95.56
2018-12-09T03:57:26.556Z,95.81
2018-12-09T03:59:57.075Z,95.71
2018-12-09T04:02:24.749Z,95.59
2018-12-09T04:04:52.375Z,95.79
2018-12-09T04:07:20.016Z,95.49
2018-12-09T04:09:47.649Z,95.36
2018-12-09T04:12:15.296Z,95.29
2018-12-09T04:14:42.935Z,95.01
2018-12-09T04:17:11.390Z,94.42
2018-12-09T04:19:39.015Z,94.68
2018-12-09T04:22:06.762Z,94.46
2018-12-09T04:24:34.501Z,93.85
2018-12-09T04:27:02.595Z,93.29
2018-12-09T04:29:30.241Z,93.37
2018-12-09T04:31:57.881Z,93.18
2018-12-09T04:34:25.498Z,92.71
2018-12-09T04:36:53.131Z,92.46
2018-12-09T04:39:21.114Z,92.23
2018-12-09T04:41:48.740Z,91.83
2018-12-09T04:44:16.413Z,92.12
2018-12-09T04:46:44.035Z,91.75
2018-12-09T04:49:11.679Z,92.02
2018-12-09T04:51:52.301Z,91.99
2018-12-09T04:54:19.946Z,92.24
2018-12-09T04:56:47.648Z,92.04
2018-12-09T04:59:19.861Z,91.69
2018-12-09T05:01:48.382Z,91.36
2018-12-09T05:04:16.083Z,91.74
2018-12-09T05:06:43.791Z,90.81
2018-12-09T05:09:12.285Z,90.57
2018-12-09T05:11:40.724Z,91.00
2018-12-09T05:14:09.044Z,90.00
2018-12-09T05:16:37.533Z,90.08
2018-12-09T05:19:06.010Z,89.16
2018-12-09T05:21:34.892Z,88.97
2018-12-09T05:24:04.607Z,88.78
2018-12-09T05:26:33.919Z,88.50
2018-12-09T05:29:02.516Z,87.44
2018-12-09T05:31:32.811Z,86.38
2018-12-09T05:34:01.401Z,86.83
2018-12-09T05:36:29.229Z,86.83
2018-12-09T05:38:57.837Z,86.65
2018-12-09T05:41:25.595Z,86.38
2018-12-09T05:43:53.921Z,86.17
2018-12-09T05:46:22.512Z,85.62
2018-12-09T05:48:50.138Z,85.38
2018-12-09T05:51:17.799Z,84.74
2018-12-09T05:53:46.393Z,85.03
2018-12-09T05:56:14.010Z,85.35
2018-12-09T05:58:42.615Z,86.57
2018-12-09T06:01:11.205Z,88.38
2018-12-09T06:03:39.772Z,88.08
2018-12-09T06:06:08.190Z,88.00
2018-12-09T06:08:35.848Z,88.70
2018-12-09T06:11:04.802Z,87.57
2018-12-09T06:13:34.408Z,87.39
2018-12-09T06:16:03.689Z,88.18
2018-12-09T06:18:33.474Z,87.32
2018-12-09T06:21:02.271Z,86.77
2018-12-09T06:23:32.874Z,87.05
2018-12-09T06:26:00.537Z,86.63
2018-12-09T06:28:28.221Z,86.56
2018-12-09T06:30:55.839Z,86.31
2018-12-09T06:33:23.534Z,85.89
2018-12-09T06:35:51.594Z,84.75
2018-12-09T06:38:19.262Z,86.65
2018-12-09T06:40:47.067Z,86.54
2018-12-09T06:43:14.731Z,86.88
2018-12-09T06:45:42.413Z,87.10
2018-12-09T06:48:11.238Z,86.97
2018-12-09T06:50:38.880Z,87.95
2018-12-09T06:53:06.541Z,87.59
2018-12-09T06:55:34.982Z,87.85
2018-12-09T06:58:02.691Z,88.36
2018-12-09T07:00:31.574Z,88.12
2018-12-09T07:02:59.217Z,88.48
2018-12-09T07:05:26.912Z,87.69
2018-12-09T07:07:55.336Z,87.69
2018-12-09T07:10:23.769Z,87.13
2018-12-09T07:12:51.445Z,86.55
2018-12-09T07:15:19.870Z,86.73
2018-12-09T07:17:47.570Z,86.76
2018-12-09T07:20:15.180Z,86.76
2018-12-09T07:22:43.762Z,87.22
2018-12-09T07:25:11.394Z,88.01
2018-12-09T07:27:39.974Z,88.78
2018-12-09T07:30:08.669Z,89.02
2018-12-09T07:32:36.359Z,89.42
2018-12-09T07:35:04.277Z,89.78
2018-12-09T07:37:32.082Z,90.18
2018-12-09T07:40:00.687Z,90.39
2018-12-09T07:42:28.325Z,90.55
2018-12-09T07:44:56.830Z,90.31
2018-12-09T07:47:24.466Z,89.67
2018-12-09T07:49:53.587Z,88.68
2018-12-09T07:52:21.288Z,89.33
2018-12-09T07:54:48.915Z,89.46
2018-12-09T07:57:17.663Z,89.65
2018-12-09T07:59:45.276Z,88.86
2018-12-09T08:02:13.691Z,88.17
2018-12-09T08:04:41.304Z,88.76
2018-12-09T08:07:09.721Z,89.79
2018-12-09T08:09:37.332Z,90.72
2018-12-09T08:12:05.913Z,91.45
2018-12-09T08:14:35.243Z,91.54
2018-12-09T08:17:03.878Z,91.48
2018-12-09T08:19:31.497Z,91.46
2018-12-09T08:22:00.064Z,90.86
2018-12-09T08:24:28.609Z,90.76
2018-12-09T08:26:57.063Z,90.28
2018-12-09T08:29:24.735Z,88.96
2018-12-09T08:31:52.361Z,88.09
2018-12-09T08:34:21.012Z,88.11
2018-12-09T08:36:49.560Z,87.38
2018-12-09T08:39:17.183Z,86.38
2018-12-09T08:41:44.812Z,85.89
2018-12-09T08:44:12.608Z,85.94
2018-12-09T08:46:40.312Z,85.10
2018-12-09T08:49:07.945Z,84.84
2018-12-09T08:51:35.575Z,84.42
2018-12-09T08:54:04.037Z,84.74
2018-12-09T08:56:32.694Z,84.20
2018-12-09T08:59:00.315Z,84.68
2018-12-09T09:01:28.864Z,84.37
2018-12-09T09:03:56.504Z,85.08
2018-12-09T09:06:24.958Z,85.08
2018-12-09T09:08:53.403Z,84.47
2018-12-09T09:11:21.289Z,85.72
2018-12-09T09:13:49.890Z,84.81
2018-12-09T09:16:18.389Z,84.52
2018-12-09T09:18:46.805Z,85.13
2018-12-09T09:21:14.438Z,84.86
2018-12-09T09:23:42.252Z,85.60
2018-12-09T09:26:09.876Z,86.47
2018-12-09T09:28:38.461Z,86.17
2018-12-09T09:31:07.039Z,85.90
2018-12-09T09:33:35.617Z,85.62
2018-12-09T09:36:04.147Z,86.02
2018-12-09T09:38:33.993Z,86.02
2018-12-09T09:41:02.472Z,86.89
2018-12-09T09:43:31.002Z,86.30
2018-12-09T09:45:58.909Z,86.00
2018-12-09T09:48:27.605Z,86.41
2018-12-09T09:50:56.198Z,85.87
2018-12-09T09:53:24.736Z,85.09
2018-12-09T09:55:52.386Z,85.37
2018-12-09T09:58:20.964Z,85.20
2018-12-09T10:00:49.532Z,84.90
2018-12-09T10:03:17.227Z,85.42
2018-12-09T10:05:44.876Z,85.72
2018-12-09T10:08:13.299Z,85.55
2018-12-09T10:10:41.782Z,85.74
2018-12-09T10:13:09.397Z,86.36
2018-12-09T10:15:37.075Z,85.24
2018-12-09T10:18:04.694Z,84.69
2018-12-09T10:20:33.246Z,83.65
2018-12-09T10:23:00.886Z,83.62
2018-12-09T10:25:28.544Z,84.80
2018-12-09T10:27:56.174Z,83.16
2018-12-09T10:30:23.824Z,83.53
2018-12-09T10:32:51.465Z,82.72
2018-12-09T10:35:19.087Z,82.86
2018-12-09T10:37:46.743Z,82.41
2018-12-09T10:40:14.397Z,83.47
2018-12-09T10:42:42.946Z,82.69
2018-12-09T10:45:10.595Z,83.71
2018-12-09T10:47:38.255Z,83.02
2018-12-09T10:50:06.940Z,82.64
2018-12-09T10:52:35.406Z,83.30
2018-12-09T10:55:03.112Z,82.63
2018-12-09T10:57:30.769Z,82.29
2018-12-09T10:59:58.764Z,83.96
2018-12-09T11:02:26.394Z,82.99
2018-12-09T11:04:54.018Z,83.80
2018-12-09T11:07:21.707Z,83.58
2018-12-09T11:09:49.331Z,83.45
2018-12-09T11:12:16.951Z,82.87
2018-12-09T11:14:44.616Z,81.98
2018-12-09T11:17:12.359Z,81.70
2018-12-09T11:19:39.982Z,81.15
2018-12-09T11:22:08.456Z,80.92
2018-12-09T11:24:36.139Z,81.48
2018-12-09T11:27:03.840Z,81.05
2018-12-09T11:29:31.461Z,81.23
2018-12-09T11:31:59.098Z,81.30
2018-12-09T11:34:26.726Z,81.70
2018-12-09T11:36:54.349Z,81.74
2018-12-09T11:39:21.979Z,82.43
2018-12-09T11:41:49.607Z,82.56
2018-12-09T11:44:17.202Z,80.94
2018-12-09T11:46:44.829Z,81.93
2018-12-09T11:49:12.480Z,81.62
2018-12-09T11:51:40.095Z,82.31
2018-12-09T11:54:13.446Z,82.64
2018-12-09T11:56:41.074Z,82.73
2018-12-09T11:59:08.692Z,82.96
2018-12-09T12:01:36.323Z,82.65
2018-12-09T12:04:04.027Z,83.03
2018-12-09T12:06:32.575Z,82.65
2018-12-09T12:09:00.225Z,82.34
2018-12-09T12:11:27.863Z,83.29
2018-12-09T12:13:55.483Z,83.06
2018-12-09T12:16:23.892Z,82.51
2018-12-09T12:18:51.520Z,82.98
2018-12-09T12:21:19.142Z,82.72
2018-12-09T12:23:46.917Z,82.89
2018-12-09T12:26:14.822Z,83.86
2018-12-09T12:28:42.588Z,83.34
2018-12-09T12:31:10.216Z,83.52
2018-12-09T12:33:37.827Z,83.47
2018-12-09T12:36:06.424Z,82.91
2018-12-09T12:38:34.059Z,83.47
2018-12-09T12:41:02.610Z,83.52
2018-12-09T12:43:30.305Z,83.77
2018-12-09T12:45:57.934Z,84.00
2018-12-09T12:48:25.999Z,83.59
2018-12-09T12:50:53.630Z,83.46
2018-12-09T12:53:21.341Z,84.45
2018-12-09T12:55:49.753Z,85.49
2018-12-09T12:58:17.378Z,85.53
2018-12-09T13:00:45.008Z,85.25
2018-12-09T13:03:12.681Z,84.85
2018-12-09T13:05:40.305Z,84.03
2018-12-09T13:08:08.025Z,84.01
2018-12-09T13:10:36.543Z,84.22
2018-12-09T13:13:04.170Z,84.14
2018-12-09T13:15:32.791Z,84.89
2018-12-09T13:18:00.413Z,84.64
2018-12-09T13:20:28.032Z,83.90
2018-12-09T13:22:55.655Z,84.07
2018-12-09T13:25:23.280Z,83.46
2018-12-09T13:27:50.902Z,83.12
2018-12-09T13:30:18.520Z,83.51
2018-12-09T13:32:46.236Z,83.15
2018-12-09T13:35:13.906Z,83.35
2018-12-09T13:37:42.441Z,82.40
2018-12-09T13:40:11.086Z,83.28
2018-12-09T13:42:38.714Z,83.25
2018-12-09T13:45:07.194Z,83.21
2018-12-09T13:47:34.819Z,83.16
2018-12-09T13:50:02.530Z,82.81
2018-12-09T13:52:32.261Z,82.30
2018-12-09T13:54:59.877Z,82.90
2018-12-09T13:57:27.481Z,83.26
2018-12-09T13:59:57.401Z,82.81
2018-12-09T14:02:25.162Z,82.83
2018-12-09T14:04:53.640Z,83.10
2018-12-09T14:07:21.406Z,83.14
2018-12-09T14:09:49.027Z,83.29
2018-12-09T14:12:17.456Z,83.32
2018-12-09T14:14:45.876Z,84.64
2018-12-09T14:17:14.394Z,84.74
2018-12-09T14:19:42.015Z,85.66
2018-12-09T14:22:09.694Z,85.31
2018-12-09T14:24:37.315Z,84.99
2018-12-09T14:27:05.018Z,84.86
2018-12-09T14:29:33.551Z,85.30
2018-12-09T14:32:01.457Z,86.09
2018-12-09T14:34:29.378Z,85.86
2018-12-09T14:36:56.992Z,85.92
2018-12-09T14:39:25.406Z,85.69
2018-12-09T14:41:53.022Z,85.83
2018-12-09T14:44:20.641Z,85.64
2018-12-09T14:46:48.265Z,86.18
2018-12-09T14:49:15.876Z,85.91
2018-12-09T14:51:44.448Z,86.19
2018-12-09T14:54:12.071Z,86.48
2018-12-09T14:56:39.682Z,86.57
2018-12-09T14:59:07.309Z,87.14
2018-12-09T15:01:34.923Z,87.11
2018-12-09T15:04:02.546Z,87.57
2018-12-09T15:06:30.183Z,87.82
2018-12-09T15:08:57.804Z,88.54
2018-12-09T15:11:25.432Z,88.26
2018-12-09T15:13:53.051Z,88.53
2018-12-09T15:16:20.670Z,88.11
2018-12-09T15:18:48.283Z,87.79
2018-12-09T15:21:15.912Z,87.80
2018-12-09T15:23:43.563Z,87.76
2018-12-09T15:26:11.181Z,88.03
2018-12-09T15:28:39.634Z,88.17
2018-12-09T15:31:07.249Z,88.23
2018-12-09T15:33:34.880Z,87.57
2018-12-09T15:36:03.508Z,87.44
2018-12-09T15:38:31.560Z,87.65
2018-12-09T15:40:59.213Z,87.34
2018-12-09T15:43:27.873Z,87.17
2018-12-09T15:45:55.554Z,87.73
2018-12-09T15:48:23.188Z,87.28
2018-12-09T15:50:51.191Z,87.36
2018-12-09T15:53:19.739Z,86.81
2018-12-09T15:55:48.152Z,87.39
2018-12-09T15:58:15.815Z,87.01
2018-12-09T16:00:49.109Z,87.13
2018-12-09T16:03:16.753Z,86.91
2018-12-09T16:05:44.374Z,86.80
2018-12-09T16:08:12.816Z,87.08
2018-12-09T16:10:40.426Z,86.63
2018-12-09T16:13:08.083Z,86.57
2018-12-09T16:15:36.737Z,85.89
2018-12-09T16:18:04.349Z,86.07
2018-12-09T16:20:32.097Z,86.35
2018-12-09T16:22:59.722Z,86.36
2018-12-09T16:25:27.335Z,86.34
2018-12-09T16:27:55.748Z,86.31
2018-12-09T16:30:24.291Z,86.39
2018-12-09T16:32:52.873Z,86.85
2018-12-09T16:35:20.575Z,87.18
2018-12-09T16:37:49.027Z,87.12
2018-12-09T16:40:16.648Z,86.79
2018-12-09T16:42:45.199Z,86.70
2018-12-09T16:45:12.832Z,87.15
2018-12-09T16:47:41.238Z,87.36
2018-12-09T16:50:08.860Z,87.45
2018-12-09T16:52:36.473Z,87.69
2018-12-09T16:55:05.462Z,87.85
2018-12-09T16:57:34.032Z,87.52
2018-12-09T17:00:02.672Z,88.02
2018-12-09T17:02:31.598Z,87.92
2018-12-09T17:05:00.012Z,87.55
2018-12-09T17:07:28.560Z,87.92
2018-12-09T17:09:56.955Z,88.03
2018-12-09T17:12:25.510Z,87.88
2018-12-09T17:14:53.907Z,88.08
2018-12-09T17:17:21.526Z,88.79
2018-12-09T17:19:49.186Z,88.00
2018-12-09T17:22:16.821Z,87.52
2018-12-09T17:24:44.486Z,86.89
2018-12-09T17:27:12.924Z,86.79
2018-12-09T17:29:40.550Z,86.99
2018-12-09T17:32:09.089Z,86.99
2018-12-09T17:34:36.706Z,86.85
2018-12-09T17:37:05.171Z,86.74
2018-12-09T17:39:34.593Z,86.71
2018-12-09T17:42:03.985Z,86.54
2018-12-09T17:44:32.473Z,86.81
2018-12-09T17:47:01.029Z,86.32
2018-12-09T17:49:29.482Z,86.08
2018-12-09T17:51:57.095Z,85.90
2018-12-09T17:54:25.643Z,85.57
2018-12-09T17:56:53.255Z,85.77
2018-12-09T17:59:20.873Z,85.42
2018-12-09T18:01:48.488Z,85.79
2018-12-09T18:04:16.103Z,85.15
2018-12-09T18:06:43.779Z,84.30
2018-12-09T18:09:12.356Z,85.22
2018-12-09T18:11:39.976Z,85.54
2018-12-09T18:14:07.620Z,84.57
2018-12-09T18:16:35.238Z,84.63
2018-12-09T18:19:03.719Z,84.59
2018-12-09T18:21:32.762Z,84.46
2018-12-09T18:24:00.379Z,84.22
2018-12-09T18:26:28.065Z,84.33
2018-12-09T18:28:56.509Z,84.38
2018-12-09T18:31:24.283Z,83.93
2018-12-09T18:33:51.986Z,84.21
2018-12-09T18:36:20.810Z,84.04
2018-12-09T18:38:49.995Z,83.99
2018-12-09T18:41:17.623Z,84.34
2018-12-09T18:43:46.156Z,84.07
2018-12-09T18:46:14.724Z,84.33
2018-12-09T18:48:42.370Z,84.27
2018-12-09T18:51:09.959Z,84.37
2018-12-09T18:53:37.590Z,84.10
2018-12-09T18:56:05.283Z,84.46
2018-12-09T18:58:33.721Z,84.30
2018-12-09T19:01:03.423Z,84.48
2018-12-09T19:03:31.937Z,85.13
2018-12-09T19:05:59.549Z,84.94
2018-12-09T19:08:27.347Z,84.59
2018-12-09T19:10:54.955Z,84.49
2018-12-09T19:13:22.606Z,84.06
2018-12-09T19:15:50.233Z,83.68
2018-12-09T19:18:18.795Z,83.92
2018-12-09T19:20:47.316Z,83.73
2018-12-09T19:23:15.865Z,83.76
2018-12-09T19:25:43.705Z,83.24
2018-12-09T19:28:12.244Z,82.91
2018-12-09T19:30:47.933Z,82.69
2018-12-09T19:33:09.537Z,82.15
2018-12-09T19:35:37.163Z,81.96
2018-12-09T19:38:04.780Z,81.82
2018-12-09T19:40:32.445Z,81.54
2018-12-09T19:43:00.069Z,80.24
2018-12-09T19:45:27.692Z,80.69
2018-12-09T19:47:56.574Z,80.74
2018-12-09T19:50:24.267Z,81.02
2018-12-09T19:52:52.675Z,81.00
2018-12-09T19:55:20.325Z,80.99
2018-12-09T19:57:47.957Z,80.63
2018-12-09T20:00:15.610Z,81.15
2018-12-09T20:02:44.221Z,80.64
2018-12-09T20:05:12.370Z,79.69
2018-12-09T20:07:40.028Z,79.96
2018-12-09T20:10:08.002Z,79.89
2018-12-09T20:12:35.640Z,79.89
2018-12-09T20:15:04.512Z,80.33
2018-12-09T20:17:33.689Z,80.30
2018-12-09T20:20:02.822Z,79.18
2018-12-09T20:22:30.443Z,79.19
2018-12-09T20:24:59.042Z,79.32
2018-12-09T20:27:28.005Z,79.28
2018-12-09T20:29:57.222Z,79.00
2018-12-09T20:32:24.847Z,78.40
2018-12-09T20:34:52.468Z,78.87
2018-12-09T20:37:20.120Z,79.12
2018-12-09T20:39:47.744Z,78.85
2018-12-09T20:42:16.302Z,79.31
2018-12-09T20:44:43.987Z,79.22
2018-12-09T20:47:12.421Z,78.74
2018-12-09T20:49:40.867Z,78.89
2018-12-09T20:52:08.488Z,78.64
2018-12-09T20:54:36.110Z,78.56
2018-12-09T20:57:03.801Z,78.76
2018-12-09T20:59:33.030Z,77.85
2018-12-09T21:02:00.659Z,78.26
2018-12-09T21:04:28.356Z,78.70
2018-12-09T21:06:55.980Z,78.17
2018-12-09T21:09:24.452Z,78.43
2018-12-09T21:11:52.914Z,77.28
2018-12-09T21:14:21.909Z,76.61
2018-12-09T21:16:49.735Z,76.57
2018-12-09T21:19:17.391Z,75.81
2018-12-09T21:21:45.037Z,75.72
2018-12-09T21:24:12.690Z,76.35
2018-12-09T21:26:40.311Z,76.95
2018-12-09T21:29:07.955Z,76.71
2018-12-09T21:31:35.574Z,76.98
2018-12-09T21:34:03.775Z,77.24
2018-12-09T21:36:32.861Z,76.78
2018-12-09T21:39:00.511Z,76.74
2018-12-09T21:41:28.928Z,77.57
2018-12-09T21:43:57.494Z,77.56
2018-12-09T21:46:25.183Z,77.60
2018-12-09T21:48:53.637Z,77.38
2018-12-09T21:51:22.051Z,77.50
2018-12-09T21:53:49.720Z,77.63
2018-12-09T21:56:17.369Z,78.21
2018-12-09T21:58:45.029Z,78.30
2018-12-09T22:01:12.650Z,78.58
2018-12-09T22:03:40.310Z,78.15
2018-12-09T22:06:07.932Z,78.46
2018-12-09T22:08:35.596Z,78.24
2018-12-09T22:11:04.163Z,78.02
2018-12-09T22:13:32.709Z,77.87
2018-12-09T22:16:00.396Z,77.67
2018-12-09T22:18:28.022Z,77.84
2018-12-09T22:20:55.684Z,78.05
2018-12-09T22:23:23.305Z,78.13
2018-12-09T22:25:51.261Z,78.06
2018-12-09T22:28:18.880Z,78.01
2018-12-09T22:30:46.510Z,78.01
2018-12-09T22:33:14.130Z,78.50
2018-12-09T22:35:41.848Z,78.97
2018-12-09T22:38:09.467Z,79.09
2018-12-09T22:40:37.183Z,78.97
2018-12-09T22:43:04.862Z,79.05
2018-12-09T22:45:32.518Z,79.24
2018-12-09T22:48:00.131Z,79.35
2018-12-09T22:50:27.835Z,79.23
2018-12-09T22:52:56.459Z,79.37
2018-12-09T22:55:24.887Z,79.10
2018-12-09T22:57:53.518Z,79.76
2018-12-09T23:00:23.796Z,79.30
2018-12-09T23:03:03.450Z,79.37
2018-12-09T23:05:32.386Z,78.85
2018-12-09T23:08:00.001Z,78.71
2018-12-09T23:10:28.572Z,78.75
2018-12-09T23:12:56.196Z,79.29
2018-12-09T23:15:24.041Z,79.06
2018-12-09T23:17:52.470Z,79.01
2018-12-09T23:20:20.087Z,79.19
2018-12-09T23:22:48.503Z,79.32
2018-12-09T23:25:16.922Z,78.99
2018-12-09T23:27:44.576Z,78.96
2018-12-09T23:30:13.118Z,78.97
2018-12-09T23:32:41.524Z,79.09
2018-12-09T23:35:09.965Z,78.84
2018-12-09T23:37:38.375Z,79.28
2018-12-09T23:40:07.148Z,78.53
2018-12-09T23:42:35.542Z,79.06
2018-12-09T23:45:04.340Z,79.04
2018-12-09T23:47:33.016Z,79.55
2018-12-09T23:50:02.660Z,79.94
2018-12-09T23:52:30.272Z,80.21
2018-12-09T23:54:57.903Z,80.15
2018-12-09T23:57:26.385Z,80.51
2018-12-09T23:59:55.306Z,80.23
